sensor_id;sensor_type;location;lat;lon;timestamp;pressure;altitude;pressure_sealevel;temperature;humidity
76726;BME280;65651;53.154;17.916;2023-12-29T00:00:30;100429.36;;;5.06;82.86
76726;BME280;65651;53.154;17.916;2023-12-29T00:03:17;100431.18;;;5.04;82.85
76726;BME280;65651;53.154;17.916;2023-12-29T00:05:44;100430.79;;;4.99;82.97
76726;BME280;65651;53.154;17.916;2023-12-29T00:08:11;100425.48;;;4.96;82.92
76726;BME280;65651;53.154;17.916;2023-12-29T00:10:38;100425.36;;;4.94;82.93
76726;BME280;65651;53.154;17.916;2023-12-29T00:13:08;100420.10;;;4.93;83.15
76726;BME280;65651;53.154;17.916;2023-12-29T00:15:36;100416.49;;;4.91;82.72
76726;BME280;65651;53.154;17.916;2023-12-29T00:18:04;100414.11;;;4.89;83.12
76726;BME280;65651;53.154;17.916;2023-12-29T00:20:31;100406.29;;;4.89;83.29
76726;BME280;65651;53.154;17.916;2023-12-29T00:23:01;100395.81;;;4.89;83.07
76726;BME280;65651;53.154;17.916;2023-12-29T00:25:31;100392.94;;;4.89;83.03
76726;BME280;65651;53.154;17.916;2023-12-29T00:27:58;100392.14;;;4.91;83.02
76726;BME280;65651;53.154;17.916;2023-12-29T00:30:28;100394.46;;;4.91;82.95
76726;BME280;65651;53.154;17.916;2023-12-29T00:32:56;100390.02;;;4.91;83.08
76726;BME280;65651;53.154;17.916;2023-12-29T00:35:23;100385.31;;;4.89;83.23
76726;BME280;65651;53.154;17.916;2023-12-29T00:37:51;100384.13;;;4.86;83.02
76726;BME280;65651;53.154;17.916;2023-12-29T00:40:19;100387.79;;;4.84;83.21
76726;BME280;65651;53.154;17.916;2023-12-29T00:42:46;100380.89;;;4.82;83.07
76726;BME280;65651;53.154;17.916;2023-12-29T00:45:13;100384.39;;;4.82;83.40
76726;BME280;65651;53.154;17.916;2023-12-29T00:47:41;100382.02;;;4.81;83.31
76726;BME280;65651;53.154;17.916;2023-12-29T00:50:08;100381.73;;;4.80;83.26
76726;BME280;65651;53.154;17.916;2023-12-29T00:52:36;100377.61;;;4.81;83.36
76726;BME280;65651;53.154;17.916;2023-12-29T00:55:06;100377.31;;;4.82;83.05
76726;BME280;65651;53.154;17.916;2023-12-29T00:57:33;100375.73;;;4.79;83.35
76726;BME280;65651;53.154;17.916;2023-12-29T01:00:01;100372.36;;;4.77;83.16
76726;BME280;65651;53.154;17.916;2023-12-29T01:02:29;100369.59;;;4.76;83.30
76726;BME280;65651;53.154;17.916;2023-12-29T01:04:56;100371.27;;;4.75;83.41
76726;BME280;65651;53.154;17.916;2023-12-29T01:07:23;100374.30;;;4.75;83.38
76726;BME280;65651;53.154;17.916;2023-12-29T01:09:50;100371.73;;;4.74;83.48
76726;BME280;65651;53.154;17.916;2023-12-29T01:12:18;100369.21;;;4.72;83.36
76726;BME280;65651;53.154;17.916;2023-12-29T01:14:45;100366.05;;;4.69;83.38
76726;BME280;65651;53.154;17.916;2023-12-29T01:17:13;100366.20;;;4.67;83.41
76726;BME280;65651;53.154;17.916;2023-12-29T01:19:40;100362.66;;;4.64;83.60
76726;BME280;65651;53.154;17.916;2023-12-29T01:22:10;100360.31;;;4.60;83.51
76726;BME280;65651;53.154;17.916;2023-12-29T01:24:37;100359.40;;;4.55;83.53
76726;BME280;65651;53.154;17.916;2023-12-29T01:27:04;100360.85;;;4.50;83.70
76726;BME280;65651;53.154;17.916;2023-12-29T01:29:32;100358.98;;;4.49;83.75
76726;BME280;65651;53.154;17.916;2023-12-29T01:31:59;100359.91;;;4.49;83.80
76726;BME280;65651;53.154;17.916;2023-12-29T01:34:27;100357.23;;;4.48;83.62
76726;BME280;65651;53.154;17.916;2023-12-29T01:37:01;100350.50;;;4.49;83.77
76726;BME280;65651;53.154;17.916;2023-12-29T01:39:29;100344.65;;;4.46;83.75
76726;BME280;65651;53.154;17.916;2023-12-29T01:41:57;100343.67;;;4.42;83.71
76726;BME280;65651;53.154;17.916;2023-12-29T01:44:25;100338.05;;;4.36;83.68
76726;BME280;65651;53.154;17.916;2023-12-29T01:46:57;100345.96;;;4.35;83.81
76726;BME280;65651;53.154;17.916;2023-12-29T01:49:26;100341.51;;;4.30;83.85
76726;BME280;65651;53.154;17.916;2023-12-29T01:51:58;100340.50;;;4.29;83.97
76726;BME280;65651;53.154;17.916;2023-12-29T01:54:34;100335.05;;;4.27;84.02
76726;BME280;65651;53.154;17.916;2023-12-29T01:57:02;100325.31;;;4.24;83.95
76726;BME280;65651;53.154;17.916;2023-12-29T01:59:31;100322.49;;;4.28;84.25
76726;BME280;65651;53.154;17.916;2023-12-29T02:02:01;100319.61;;;4.34;84.19
76726;BME280;65651;53.154;17.916;2023-12-29T02:04:30;100323.33;;;4.37;84.22
76726;BME280;65651;53.154;17.916;2023-12-29T02:06:57;100320.48;;;4.37;84.07
76726;BME280;65651;53.154;17.916;2023-12-29T02:09:25;100311.55;;;4.37;84.09
76726;BME280;65651;53.154;17.916;2023-12-29T02:11:54;100302.13;;;4.37;84.13
76726;BME280;65651;53.154;17.916;2023-12-29T02:14:22;100303.80;;;4.41;84.14
76726;BME280;65651;53.154;17.916;2023-12-29T02:19:38;100297.02;;;4.41;84.22
76726;BME280;65651;53.154;17.916;2023-12-29T02:22:06;100298.66;;;4.40;84.25
76726;BME280;65651;53.154;17.916;2023-12-29T02:24:35;100297.55;;;4.41;84.17
76726;BME280;65651;53.154;17.916;2023-12-29T02:30:09;100292.27;;;4.40;84.24
76726;BME280;65651;53.154;17.916;2023-12-29T02:32:41;100284.65;;;4.38;84.31
76726;BME280;65651;53.154;17.916;2023-12-29T02:35:17;100282.14;;;4.38;84.32
76726;BME280;65651;53.154;17.916;2023-12-29T02:37:46;100275.03;;;4.38;84.21
76726;BME280;65651;53.154;17.916;2023-12-29T02:40:14;100274.79;;;4.39;84.32
76726;BME280;65651;53.154;17.916;2023-12-29T02:42:47;100272.54;;;4.38;84.32
76726;BME280;65651;53.154;17.916;2023-12-29T02:45:15;100266.97;;;4.37;84.30
76726;BME280;65651;53.154;17.916;2023-12-29T02:47:43;100265.56;;;4.37;84.45
76726;BME280;65651;53.154;17.916;2023-12-29T02:50:11;100262.02;;;4.39;84.35
76726;BME280;65651;53.154;17.916;2023-12-29T02:52:38;100256.52;;;4.41;84.35
76726;BME280;65651;53.154;17.916;2023-12-29T02:55:07;100255.41;;;4.41;84.33
76726;BME280;65651;53.154;17.916;2023-12-29T02:57:34;100251.98;;;4.42;84.40
76726;BME280;65651;53.154;17.916;2023-12-29T03:00:04;100249.69;;;4.42;84.34
76726;BME280;65651;53.154;17.916;2023-12-29T03:02:32;100244.14;;;4.40;84.43
76726;BME280;65651;53.154;17.916;2023-12-29T03:05:00;100242.29;;;4.39;84.43
76726;BME280;65651;53.154;17.916;2023-12-29T03:07:28;100237.09;;;4.37;84.41
76726;BME280;65651;53.154;17.916;2023-12-29T03:09:55;100240.52;;;4.36;84.68
76726;BME280;65651;53.154;17.916;2023-12-29T03:12:23;100240.25;;;4.35;84.62
76726;BME280;65651;53.154;17.916;2023-12-29T03:14:50;100238.33;;;4.35;84.53
76726;BME280;65651;53.154;17.916;2023-12-29T03:17:20;100236.34;;;4.38;84.68
76726;BME280;65651;53.154;17.916;2023-12-29T03:19:47;100235.98;;;4.40;84.78
76726;BME280;65651;53.154;17.916;2023-12-29T03:22:14;100232.82;;;4.42;84.66
76726;BME280;65651;53.154;17.916;2023-12-29T03:24:42;100229.34;;;4.45;84.69
76726;BME280;65651;53.154;17.916;2023-12-29T03:27:09;100229.32;;;4.48;84.63
76726;BME280;65651;53.154;17.916;2023-12-29T03:29:37;100230.44;;;4.52;84.84
76726;BME280;65651;53.154;17.916;2023-12-29T03:32:05;100226.70;;;4.57;84.70
76726;BME280;65651;53.154;17.916;2023-12-29T03:34:34;100227.71;;;4.64;84.59
76726;BME280;65651;53.154;17.916;2023-12-29T03:37:01;100230.73;;;4.67;84.65
76726;BME280;65651;53.154;17.916;2023-12-29T03:39:28;100231.32;;;4.68;84.47
76726;BME280;65651;53.154;17.916;2023-12-29T03:41:56;100229.94;;;4.74;84.59
76726;BME280;65651;53.154;17.916;2023-12-29T03:44:24;100230.89;;;4.78;84.49
76726;BME280;65651;53.154;17.916;2023-12-29T03:46:51;100230.83;;;4.81;84.57
76726;BME280;65651;53.154;17.916;2023-12-29T03:49:23;100225.56;;;4.85;84.58
76726;BME280;65651;53.154;17.916;2023-12-29T03:51:51;100219.70;;;4.90;84.47
76726;BME280;65651;53.154;17.916;2023-12-29T03:54:18;100214.45;;;4.91;84.16
76726;BME280;65651;53.154;17.916;2023-12-29T03:56:47;100210.52;;;4.91;84.26
76726;BME280;65651;53.154;17.916;2023-12-29T03:59:14;100204.72;;;4.88;84.02
76726;BME280;65651;53.154;17.916;2023-12-29T04:01:41;100209.10;;;4.84;84.08
76726;BME280;65651;53.154;17.916;2023-12-29T04:04:13;100213.71;;;4.84;84.20
76726;BME280;65651;53.154;17.916;2023-12-29T04:06:40;100215.98;;;4.82;84.36
76726;BME280;65651;53.154;17.916;2023-12-29T04:09:07;100213.09;;;4.81;84.12
76726;BME280;65651;53.154;17.916;2023-12-29T04:11:35;100202.90;;;4.82;84.19
76726;BME280;65651;53.154;17.916;2023-12-29T04:14:02;100193.67;;;4.79;84.15
76726;BME280;65651;53.154;17.916;2023-12-29T04:16:30;100188.92;;;4.76;84.49
76726;BME280;65651;53.154;17.916;2023-12-29T04:18:57;100183.35;;;4.75;84.23
76726;BME280;65651;53.154;17.916;2023-12-29T04:21:24;100175.80;;;4.78;84.16
76726;BME280;65651;53.154;17.916;2023-12-29T04:23:51;100177.11;;;4.77;84.41
76726;BME280;65651;53.154;17.916;2023-12-29T04:26:19;100179.02;;;4.77;84.18
76726;BME280;65651;53.154;17.916;2023-12-29T04:28:46;100175.95;;;4.78;84.30
76726;BME280;65651;53.154;17.916;2023-12-29T04:31:14;100172.53;;;4.79;84.32
76726;BME280;65651;53.154;17.916;2023-12-29T04:33:45;100173.69;;;4.78;84.09
76726;BME280;65651;53.154;17.916;2023-12-29T04:36:12;100164.30;;;4.82;84.25
76726;BME280;65651;53.154;17.916;2023-12-29T04:38:39;100165.17;;;4.89;84.13
76726;BME280;65651;53.154;17.916;2023-12-29T04:41:07;100161.83;;;4.95;84.13
76726;BME280;65651;53.154;17.916;2023-12-29T04:43:34;100153.77;;;5.00;83.98
76726;BME280;65651;53.154;17.916;2023-12-29T04:46:01;100146.60;;;5.05;83.85
76726;BME280;65651;53.154;17.916;2023-12-29T04:48:29;100144.35;;;5.09;83.92
76726;BME280;65651;53.154;17.916;2023-12-29T04:50:56;100138.84;;;5.11;83.86
76726;BME280;65651;53.154;17.916;2023-12-29T04:53:23;100135.95;;;5.12;83.75
76726;BME280;65651;53.154;17.916;2023-12-29T04:55:51;100129.40;;;5.11;83.50
76726;BME280;65651;53.154;17.916;2023-12-29T04:58:18;100130.93;;;5.10;83.50
76726;BME280;65651;53.154;17.916;2023-12-29T05:00:45;100127.24;;;5.14;83.43
76726;BME280;65651;53.154;17.916;2023-12-29T05:03:13;100124.69;;;5.17;83.64
76726;BME280;65651;53.154;17.916;2023-12-29T05:05:41;100121.65;;;5.17;83.56
76726;BME280;65651;53.154;17.916;2023-12-29T05:08:08;100123.81;;;5.17;83.58
76726;BME280;65651;53.154;17.916;2023-12-29T05:10:35;100126.48;;;5.15;83.43
76726;BME280;65651;53.154;17.916;2023-12-29T05:13:06;100128.45;;;5.17;83.27
76726;BME280;65651;53.154;17.916;2023-12-29T05:15:37;100126.18;;;5.18;83.17
76726;BME280;65651;53.154;17.916;2023-12-29T05:18:04;100122.20;;;5.22;83.38
76726;BME280;65651;53.154;17.916;2023-12-29T05:20:32;100117.55;;;5.22;83.28
76726;BME280;65651;53.154;17.916;2023-12-29T05:23:00;100114.58;;;5.21;83.16
76726;BME280;65651;53.154;17.916;2023-12-29T05:25:27;100113.55;;;5.20;83.26
76726;BME280;65651;53.154;17.916;2023-12-29T05:27:54;100111.63;;;5.22;83.32
76726;BME280;65651;53.154;17.916;2023-12-29T05:30:22;100105.73;;;5.23;83.27
76726;BME280;65651;53.154;17.916;2023-12-29T05:32:49;100112.04;;;5.22;82.83
76726;BME280;65651;53.154;17.916;2023-12-29T05:35:18;100119.23;;;5.21;82.99
76726;BME280;65651;53.154;17.916;2023-12-29T05:37:45;100115.69;;;5.21;83.08
76726;BME280;65651;53.154;17.916;2023-12-29T05:40:12;100108.45;;;5.22;82.80
76726;BME280;65651;53.154;17.916;2023-12-29T05:42:40;100099.98;;;5.21;82.83
76726;BME280;65651;53.154;17.916;2023-12-29T05:45:07;100097.10;;;5.19;82.84
76726;BME280;65651;53.154;17.916;2023-12-29T05:47:35;100089.73;;;5.20;82.86
76726;BME280;65651;53.154;17.916;2023-12-29T05:50:02;100091.95;;;5.19;82.98
76726;BME280;65651;53.154;17.916;2023-12-29T05:52:30;100085.53;;;5.17;82.91
76726;BME280;65651;53.154;17.916;2023-12-29T05:54:57;100082.26;;;5.16;83.02
76726;BME280;65651;53.154;17.916;2023-12-29T05:57:24;100081.01;;;5.18;82.91
76726;BME280;65651;53.154;17.916;2023-12-29T05:59:52;100080.41;;;5.17;82.61
76726;BME280;65651;53.154;17.916;2023-12-29T06:02:19;100080.55;;;5.17;82.94
76726;BME280;65651;53.154;17.916;2023-12-29T06:04:47;100077.55;;;5.17;82.78
76726;BME280;65651;53.154;17.916;2023-12-29T06:07:14;100075.34;;;5.16;82.81
76726;BME280;65651;53.154;17.916;2023-12-29T06:09:41;100078.05;;;5.15;82.70
76726;BME280;65651;53.154;17.916;2023-12-29T06:12:09;100083.73;;;5.16;82.84
76726;BME280;65651;53.154;17.916;2023-12-29T06:14:39;100083.23;;;5.12;82.68
76726;BME280;65651;53.154;17.916;2023-12-29T06:17:06;100086.14;;;5.12;82.68
76726;BME280;65651;53.154;17.916;2023-12-29T06:19:33;100089.05;;;5.11;82.68
76726;BME280;65651;53.154;17.916;2023-12-29T06:22:03;100089.13;;;5.08;82.81
76726;BME280;65651;53.154;17.916;2023-12-29T06:24:33;100095.09;;;5.05;83.06
76726;BME280;65651;53.154;17.916;2023-12-29T06:27:01;100093.23;;;5.05;82.91
76726;BME280;65651;53.154;17.916;2023-12-29T06:29:28;100098.46;;;5.09;82.86
76726;BME280;65651;53.154;17.916;2023-12-29T06:31:55;100094.50;;;5.14;82.83
76726;BME280;65651;53.154;17.916;2023-12-29T06:34:22;100089.61;;;5.22;82.71
76726;BME280;65651;53.154;17.916;2023-12-29T06:36:50;100084.50;;;5.28;82.75
76726;BME280;65651;53.154;17.916;2023-12-29T06:39:19;100080.27;;;5.34;82.79
76726;BME280;65651;53.154;17.916;2023-12-29T06:41:47;100072.05;;;5.38;82.39
76726;BME280;65651;53.154;17.916;2023-12-29T06:44:15;100068.69;;;5.43;82.66
76726;BME280;65651;53.154;17.916;2023-12-29T06:46:42;100061.52;;;5.45;82.69
76726;BME280;65651;53.154;17.916;2023-12-29T06:49:09;100056.67;;;5.48;82.55
76726;BME280;65651;53.154;17.916;2023-12-29T06:51:37;100059.48;;;5.53;82.66
76726;BME280;65651;53.154;17.916;2023-12-29T06:54:06;100055.25;;;5.56;82.51
76726;BME280;65651;53.154;17.916;2023-12-29T06:56:33;100057.76;;;5.58;82.27
76726;BME280;65651;53.154;17.916;2023-12-29T06:59:01;100057.00;;;5.63;82.16
76726;BME280;65651;53.154;17.916;2023-12-29T07:01:28;100052.67;;;5.66;82.30
76726;BME280;65651;53.154;17.916;2023-12-29T07:03:55;100048.04;;;5.68;82.01
76726;BME280;65651;53.154;17.916;2023-12-29T07:06:23;100057.80;;;5.73;82.03
76726;BME280;65651;53.154;17.916;2023-12-29T07:08:53;100061.08;;;5.76;82.17
76726;BME280;65651;53.154;17.916;2023-12-29T07:11:21;100061.46;;;5.78;81.97
76726;BME280;65651;53.154;17.916;2023-12-29T07:13:48;100063.93;;;5.82;82.14
76726;BME280;65651;53.154;17.916;2023-12-29T07:16:15;100073.08;;;5.86;81.75
76726;BME280;65651;53.154;17.916;2023-12-29T07:18:42;100071.02;;;5.89;81.69
76726;BME280;65651;53.154;17.916;2023-12-29T07:21:10;100066.80;;;5.88;81.75
76726;BME280;65651;53.154;17.916;2023-12-29T07:23:40;100058.07;;;5.91;81.45
76726;BME280;65651;53.154;17.916;2023-12-29T07:26:08;100066.14;;;5.94;81.50
76726;BME280;65651;53.154;17.916;2023-12-29T07:28:35;100065.48;;;5.96;81.46
76726;BME280;65651;53.154;17.916;2023-12-29T07:31:03;100068.02;;;5.98;81.60
76726;BME280;65651;53.154;17.916;2023-12-29T07:33:30;100066.84;;;5.99;81.59
76726;BME280;65651;53.154;17.916;2023-12-29T07:35:58;100054.98;;;6.00;81.10
76726;BME280;65651;53.154;17.916;2023-12-29T07:38:25;100057.09;;;6.03;80.96
76726;BME280;65651;53.154;17.916;2023-12-29T07:40:52;100058.33;;;6.04;81.08
76726;BME280;65651;53.154;17.916;2023-12-29T07:43:19;100057.92;;;6.07;81.11
76726;BME280;65651;53.154;17.916;2023-12-29T07:45:50;100059.31;;;6.08;80.81
76726;BME280;65651;53.154;17.916;2023-12-29T07:48:17;100063.55;;;6.10;80.86
76726;BME280;65651;53.154;17.916;2023-12-29T07:50:44;100063.27;;;6.13;80.57
76726;BME280;65651;53.154;17.916;2023-12-29T07:53:12;100057.61;;;6.19;80.69
76726;BME280;65651;53.154;17.916;2023-12-29T07:55:43;100053.70;;;6.25;80.60
76726;BME280;65651;53.154;17.916;2023-12-29T07:58:10;100051.38;;;6.32;80.72
76726;BME280;65651;53.154;17.916;2023-12-29T08:00:38;100051.63;;;6.37;80.34
76726;BME280;65651;53.154;17.916;2023-12-29T08:03:05;100057.20;;;6.42;80.22
76726;BME280;65651;53.154;17.916;2023-12-29T08:05:34;100057.54;;;6.47;80.18
76726;BME280;65651;53.154;17.916;2023-12-29T08:08:06;100065.05;;;6.51;80.28
76726;BME280;65651;53.154;17.916;2023-12-29T08:10:33;100062.23;;;6.52;80.09
76726;BME280;65651;53.154;17.916;2023-12-29T08:13:00;100060.23;;;6.55;79.92
76726;BME280;65651;53.154;17.916;2023-12-29T08:15:27;100066.00;;;6.58;79.92
76726;BME280;65651;53.154;17.916;2023-12-29T08:17:55;100057.36;;;6.63;80.34
76726;BME280;65651;53.154;17.916;2023-12-29T08:20:23;100062.03;;;6.71;80.21
76726;BME280;65651;53.154;17.916;2023-12-29T08:22:52;100056.09;;;6.80;80.04
76726;BME280;65651;53.154;17.916;2023-12-29T08:25:19;100053.19;;;6.94;79.49
76726;BME280;65651;53.154;17.916;2023-12-29T08:27:46;100052.70;;;7.07;79.65
76726;BME280;65651;53.154;17.916;2023-12-29T08:30:14;100056.00;;;7.17;79.10
76726;BME280;65651;53.154;17.916;2023-12-29T08:32:41;100067.06;;;7.24;79.03
76726;BME280;65651;53.154;17.916;2023-12-29T08:35:08;100063.52;;;7.30;79.09
76726;BME280;65651;53.154;17.916;2023-12-29T08:37:36;100062.00;;;7.31;78.80
76726;BME280;65651;53.154;17.916;2023-12-29T08:40:04;100060.00;;;7.27;78.80
76726;BME280;65651;53.154;17.916;2023-12-29T08:42:31;100050.84;;;7.24;78.85
76726;BME280;65651;53.154;17.916;2023-12-29T08:45:07;100055.66;;;7.24;78.75
76726;BME280;65651;53.154;17.916;2023-12-29T08:47:36;100061.31;;;7.21;78.68
76726;BME280;65651;53.154;17.916;2023-12-29T08:50:04;100063.73;;;7.20;78.47
76726;BME280;65651;53.154;17.916;2023-12-29T08:52:31;100061.84;;;7.19;78.43
76726;BME280;65651;53.154;17.916;2023-12-29T08:55:00;100063.63;;;7.19;78.33
76726;BME280;65651;53.154;17.916;2023-12-29T08:57:27;100065.34;;;7.20;78.54
76726;BME280;65651;53.154;17.916;2023-12-29T08:59:54;100064.18;;;7.21;78.74
76726;BME280;65651;53.154;17.916;2023-12-29T09:02:22;100064.20;;;7.22;78.72
76726;BME280;65651;53.154;17.916;2023-12-29T09:04:49;100062.80;;;7.26;78.73
76726;BME280;65651;53.154;17.916;2023-12-29T09:07:16;100058.84;;;7.28;78.50
76726;BME280;65651;53.154;17.916;2023-12-29T09:09:43;100060.45;;;7.31;78.65
76726;BME280;65651;53.154;17.916;2023-12-29T09:12:11;100062.33;;;7.29;78.64
76726;BME280;65651;53.154;17.916;2023-12-29T09:14:38;100060.22;;;7.29;78.66
76726;BME280;65651;53.154;17.916;2023-12-29T09:17:05;100055.02;;;7.32;78.63
76726;BME280;65651;53.154;17.916;2023-12-29T09:19:33;100054.73;;;7.36;78.53
76726;BME280;65651;53.154;17.916;2023-12-29T09:22:00;100055.02;;;7.41;78.60
76726;BME280;65651;53.154;17.916;2023-12-29T09:24:27;100052.18;;;7.47;78.46
76726;BME280;65651;53.154;17.916;2023-12-29T09:26:54;100040.79;;;7.52;78.20
76726;BME280;65651;53.154;17.916;2023-12-29T09:29:22;100035.24;;;7.56;78.16
76726;BME280;65651;53.154;17.916;2023-12-29T09:31:52;100032.44;;;7.60;78.13
76726;BME280;65651;53.154;17.916;2023-12-29T09:34:21;100026.77;;;7.61;78.10
76726;BME280;65651;53.154;17.916;2023-12-29T09:36:49;100026.33;;;7.66;78.12
76726;BME280;65651;53.154;17.916;2023-12-29T09:39:16;100026.70;;;7.70;78.16
76726;BME280;65651;53.154;17.916;2023-12-29T09:41:46;100023.31;;;7.73;77.77
76726;BME280;65651;53.154;17.916;2023-12-29T09:44:14;100023.72;;;7.78;77.87
76726;BME280;65651;53.154;17.916;2023-12-29T09:46:42;100022.17;;;7.82;77.84
76726;BME280;65651;53.154;17.916;2023-12-29T09:49:12;100029.75;;;7.85;77.73
76726;BME280;65651;53.154;17.916;2023-12-29T09:51:41;100028.12;;;7.89;77.25
76726;BME280;65651;53.154;17.916;2023-12-29T09:54:09;100027.96;;;7.92;77.17
76726;BME280;65651;53.154;17.916;2023-12-29T09:56:38;100028.30;;;7.96;77.10
76726;BME280;65651;53.154;17.916;2023-12-29T09:59:06;100023.70;;;8.01;77.16
76726;BME280;65651;53.154;17.916;2023-12-29T10:01:37;100016.77;;;8.07;76.71
76726;BME280;65651;53.154;17.916;2023-12-29T10:04:04;100020.95;;;8.16;76.80
76726;BME280;65651;53.154;17.916;2023-12-29T10:06:36;100018.02;;;8.24;76.46
76726;BME280;65651;53.154;17.916;2023-12-29T10:09:10;100013.60;;;8.33;76.04
76726;BME280;65651;53.154;17.916;2023-12-29T10:11:42;100017.05;;;8.40;75.92
76726;BME280;65651;53.154;17.916;2023-12-29T10:14:30;100011.77;;;8.44;75.99
76726;BME280;65651;53.154;17.916;2023-12-29T10:17:52;100014.66;;;8.46;75.68
76726;BME280;65651;53.154;17.916;2023-12-29T10:23:08;100007.52;;;8.48;75.29
76726;BME280;65651;53.154;17.916;2023-12-29T10:25:36;100021.23;;;8.49;75.10
76726;BME280;65651;53.154;17.916;2023-12-29T10:28:05;100019.69;;;8.48;75.33
76726;BME280;65651;53.154;17.916;2023-12-29T10:30:33;100021.73;;;8.45;75.09
76726;BME280;65651;53.154;17.916;2023-12-29T10:33:01;100015.27;;;8.42;74.94
76726;BME280;65651;53.154;17.916;2023-12-29T10:35:30;100019.25;;;8.39;74.86
76726;BME280;65651;53.154;17.916;2023-12-29T10:38:09;100014.45;;;8.41;74.99
76726;BME280;65651;53.154;17.916;2023-12-29T10:40:40;100016.73;;;8.45;74.94
76726;BME280;65651;53.154;17.916;2023-12-29T10:43:16;100012.54;;;8.51;74.98
76726;BME280;65651;53.154;17.916;2023-12-29T10:45:48;100015.73;;;8.63;74.97
76726;BME280;65651;53.154;17.916;2023-12-29T10:48:22;100020.33;;;8.73;74.51
76726;BME280;65651;53.154;17.916;2023-12-29T10:50:52;100016.17;;;8.84;74.46
76726;BME280;65651;53.154;17.916;2023-12-29T10:53:20;100013.68;;;8.99;73.94
76726;BME280;65651;53.154;17.916;2023-12-29T10:55:50;100014.20;;;9.11;73.61
76726;BME280;65651;53.154;17.916;2023-12-29T10:58:18;100019.38;;;9.21;73.72
76726;BME280;65651;53.154;17.916;2023-12-29T11:00:46;100007.60;;;9.29;73.29
76726;BME280;65651;53.154;17.916;2023-12-29T11:03:15;100005.70;;;9.37;73.13
76726;BME280;65651;53.154;17.916;2023-12-29T11:05:48;100010.42;;;9.42;73.08
76726;BME280;65651;53.154;17.916;2023-12-29T11:08:19;100000.27;;;9.43;72.75
76726;BME280;65651;53.154;17.916;2023-12-29T11:10:48;100001.48;;;9.46;72.63
76726;BME280;65651;53.154;17.916;2023-12-29T11:13:16;100003.33;;;9.52;72.22
76726;BME280;65651;53.154;17.916;2023-12-29T11:15:44;100002.95;;;9.52;72.27
76726;BME280;65651;53.154;17.916;2023-12-29T11:18:13;99999.90;;;9.52;72.32
76726;BME280;65651;53.154;17.916;2023-12-29T11:20:43;100001.03;;;9.59;72.34
76726;BME280;65651;53.154;17.916;2023-12-29T11:23:13;99997.66;;;9.64;72.66
76726;BME280;65651;53.154;17.916;2023-12-29T11:25:43;99993.63;;;9.61;72.31
76726;BME280;65651;53.154;17.916;2023-12-29T11:28:12;99992.11;;;9.52;72.04
76726;BME280;65651;53.154;17.916;2023-12-29T11:30:40;99988.29;;;9.43;71.81
76726;BME280;65651;53.154;17.916;2023-12-29T11:33:23;99985.58;;;9.40;72.03
76726;BME280;65651;53.154;17.916;2023-12-29T11:36:17;99991.16;;;9.37;72.03
76726;BME280;65651;53.154;17.916;2023-12-29T11:38:58;99994.40;;;9.32;71.98
76726;BME280;65651;53.154;17.916;2023-12-29T11:41:37;99999.15;;;9.29;71.77
76726;BME280;65651;53.154;17.916;2023-12-29T11:44:06;99997.85;;;9.32;71.54
76726;BME280;65651;53.154;17.916;2023-12-29T11:46:43;99996.48;;;9.35;71.56
76726;BME280;65651;53.154;17.916;2023-12-29T11:49:10;99995.61;;;9.43;71.36
76726;BME280;65651;53.154;17.916;2023-12-29T11:51:46;99992.77;;;9.48;71.23
76726;BME280;65651;53.154;17.916;2023-12-29T11:54:24;99989.21;;;9.52;71.18
76726;BME280;65651;53.154;17.916;2023-12-29T11:56:55;99988.31;;;9.52;70.90
76726;BME280;65651;53.154;17.916;2023-12-29T11:59:24;99987.70;;;9.51;71.22
76726;BME280;65651;53.154;17.916;2023-12-29T12:01:55;99988.75;;;9.46;71.09
76726;BME280;65651;53.154;17.916;2023-12-29T12:04:36;99996.29;;;9.42;71.18
76726;BME280;65651;53.154;17.916;2023-12-29T12:09:49;100000.61;;;9.46;70.91
76726;BME280;65651;53.154;17.916;2023-12-29T12:12:40;99997.34;;;9.44;71.20
76726;BME280;65651;53.154;17.916;2023-12-29T12:18:01;99995.17;;;9.33;71.37
76726;BME280;65651;53.154;17.916;2023-12-29T12:20:36;99991.48;;;9.28;70.99
76726;BME280;65651;53.154;17.916;2023-12-29T12:23:17;99990.09;;;9.23;71.21
76726;BME280;65651;53.154;17.916;2023-12-29T12:25:46;99991.14;;;9.20;71.15
76726;BME280;65651;53.154;17.916;2023-12-29T12:28:14;99995.70;;;9.17;71.19
76726;BME280;65651;53.154;17.916;2023-12-29T12:30:42;100008.20;;;9.16;71.10
76726;BME280;65651;53.154;17.916;2023-12-29T12:33:12;100009.86;;;9.13;71.12
76726;BME280;65651;53.154;17.916;2023-12-29T12:35:40;100011.12;;;9.11;71.14
76726;BME280;65651;53.154;17.916;2023-12-29T12:40:39;100009.23;;;9.09;71.35
76726;BME280;65651;53.154;17.916;2023-12-29T12:43:07;100007.89;;;9.08;71.38
76726;BME280;65651;53.154;17.916;2023-12-29T12:45:41;100005.52;;;9.05;71.11
76726;BME280;65651;53.154;17.916;2023-12-29T12:48:34;100007.83;;;9.05;71.16
76726;BME280;65651;53.154;17.916;2023-12-29T12:51:00;100006.21;;;9.05;71.13
76726;BME280;65651;53.154;17.916;2023-12-29T12:53:28;100011.08;;;9.05;71.23
76726;BME280;65651;53.154;17.916;2023-12-29T12:55:55;100011.62;;;9.05;70.84
76726;BME280;65651;53.154;17.916;2023-12-29T12:58:23;100011.17;;;9.08;70.88
76726;BME280;65651;53.154;17.916;2023-12-29T13:00:57;99997.88;;;9.10;70.82
76726;BME280;65651;53.154;17.916;2023-12-29T13:03:24;100002.05;;;9.11;70.66
76726;BME280;65651;53.154;17.916;2023-12-29T13:05:52;100001.36;;;9.12;70.55
76726;BME280;65651;53.154;17.916;2023-12-29T13:08:21;100010.25;;;9.13;70.44
76726;BME280;65651;53.154;17.916;2023-12-29T13:10:48;100012.09;;;9.14;70.49
76726;BME280;65651;53.154;17.916;2023-12-29T13:13:15;100007.51;;;9.14;70.42
76726;BME280;65651;53.154;17.916;2023-12-29T13:15:49;100008.52;;;9.13;70.40